Time;durP1;ratioP1;P1;durP2;ratioP2;P2;SDS_P1;SDS_P2;PMS_P1;PMS_P2;Temp;Humidity;BMP_temperature;BMP_pressure;BME280_temperature;BME280_humidity;BME280_pressure;Samples;Min_cycle;Max_cycle;Signal;HPM_P1;HPM_P2
2021/06/13 00:00:17;;;;;;;7.15;4.88;;;;;;;19.05;79.60;96920.47;5036563;28;20308;-75
2021/06/13 00:02:44;;;;;;;8.38;5.43;;;;;;;19.03;78.69;96913.69;5036956;28;20255;-75
2021/06/13 00:05:12;;;;;;;7.07;4.93;;;;;;;19.02;79.50;96918.19;5034883;28;20233;-76
2021/06/13 00:07:38;;;;;;;8.80;5.68;;;;;;;19.06;80.29;96914.09;5035362;28;20690;-76
2021/06/13 00:10:05;;;;;;;8.90;5.43;;;;;;;19.00;81.28;96914.09;5037856;28;20300;-75
2021/06/13 00:12:31;;;;;;;10.52;5.93;;;;;;;18.99;81.20;96917.78;5036823;28;20276;-75
2021/06/13 00:14:57;;;;;;;10.25;5.85;;;;;;;18.94;80.54;96913.09;5035703;28;20913;-75
2021/06/13 00:17:25;;;;;;;8.77;5.65;;;;;;;18.90;81.28;96926.28;5035912;28;20295;-75
2021/06/13 00:19:51;;;;;;;8.85;6.57;;;;;;;18.90;79.65;96915.59;5034518;28;20204;-75
2021/06/13 00:22:16;;;;;;;10.60;6.53;;;;;;;18.84;80.08;96914.59;5036205;28;20209;-75
2021/06/13 00:24:42;;;;;;;9.60;6.60;;;;;;;18.85;80.57;96923.41;5033215;28;20324;-75
2021/06/13 00:27:09;;;;;;;10.63;6.47;;;;;;;18.75;80.88;96918.53;5034815;28;20773;-75
2021/06/13 00:29:35;;;;;;;8.80;6.30;;;;;;;18.77;81.31;96924.47;5036923;28;20231;-76
2021/06/13 00:32:01;;;;;;;9.43;6.28;;;;;;;18.78;81.97;96922.63;5035935;28;20675;-76
2021/06/13 00:34:28;;;;;;;10.68;6.55;;;;;;;18.66;82.36;96927.78;5035884;28;20217;-77
2021/06/13 00:36:54;;;;;;;8.93;6.18;;;;;;;18.78;83.88;96931.44;5035661;28;20201;-77
2021/06/13 00:39:20;;;;;;;8.95;6.20;;;;;;;18.83;83.22;96931.63;5035655;28;20201;-75
2021/06/13 00:41:46;;;;;;;9.25;6.47;;;;;;;18.83;82.47;96934.31;5036043;28;20270;-75
2021/06/13 00:44:12;;;;;;;8.93;6.40;;;;;;;18.89;83.57;96930.81;5036442;28;20905;-75
2021/06/13 00:46:40;;;;;;;10.82;6.38;;;;;;;18.80;83.60;96929.41;5035175;28;20232;-75
2021/06/13 00:49:06;;;;;;;9.40;6.28;;;;;;;18.76;81.76;96938.88;5036251;28;20247;-75
2021/06/13 00:51:33;;;;;;;9.20;6.18;;;;;;;18.72;81.23;96937.63;5035576;28;20197;-75
2021/06/13 00:54:00;;;;;;;9.02;6.10;;;;;;;18.63;82.54;96941.53;5036042;28;20228;-76
2021/06/13 00:56:26;;;;;;;9.77;6.95;;;;;;;18.59;81.46;96942.19;5035761;28;20212;-76
2021/06/13 00:58:53;;;;;;;10.00;6.20;;;;;;;18.51;80.63;96929.88;5036046;28;20327;-75
2021/06/13 01:01:19;;;;;;;10.85;6.90;;;;;;;18.52;80.45;96933.38;5035821;28;20205;-76
2021/06/13 01:03:47;;;;;;;10.50;6.25;;;;;;;18.50;80.66;96930.09;5035555;28;20609;-76
2021/06/13 01:06:21;;;;;;;11.35;7.05;;;;;;;18.49;80.68;96931.13;5035117;28;20319;-75
2021/06/13 01:08:52;;;;;;;11.00;7.00;;;;;;;18.41;81.01;96945.50;5035971;28;21273;-76
2021/06/13 01:11:25;;;;;;;10.45;6.95;;;;;;;18.31;81.77;96936.28;5035467;28;20629;-77
2021/06/13 01:14:01;;;;;;;11.05;6.68;;;;;;;18.30;82.76;96926.63;5035420;28;20236;-76
2021/06/13 01:16:33;;;;;;;13.45;7.20;;;;;;;18.22;82.39;96932.19;5034835;28;20207;-76
2021/06/13 01:19:02;;;;;;;9.70;6.88;;;;;;;18.23;82.41;96939.19;5035241;28;20551;-77
2021/06/13 01:21:35;;;;;;;11.10;6.72;;;;;;;18.20;82.70;96928.09;5035270;28;20205;-77
2021/06/13 01:24:27;;;;;;;10.73;6.70;;;;;;;18.17;83.19;96931.16;5034556;28;20237;-77
2021/06/13 01:27:11;;;;;;;12.82;7.40;;;;;;;18.18;83.13;96933.63;5034755;28;20233;-75
2021/06/13 01:29:42;;;;;;;13.00;7.05;;;;;;;18.15;84.36;96934.03;5036979;28;20213;-75
2021/06/13 01:32:16;;;;;;;10.40;6.70;;;;;;;18.12;84.04;96929.09;5039064;28;20212;-76
2021/06/13 01:34:48;;;;;;;11.18;6.82;;;;;;;18.04;84.53;96931.97;5038371;28;20225;-75
2021/06/13 01:37:18;;;;;;;13.00;7.13;;;;;;;17.90;82.25;96929.53;5037665;28;20925;-76
2021/06/13 01:39:48;;;;;;;9.70;6.80;;;;;;;17.87;82.88;96930.75;5038718;28;20663;-76
2021/06/13 01:42:16;;;;;;;10.02;7.32;;;;;;;17.80;82.68;96923.78;5038177;28;20213;-75
2021/06/13 01:44:45;;;;;;;11.20;6.90;;;;;;;17.69;81.56;96924.38;5038728;28;20967;-76
2021/06/13 01:47:12;;;;;;;11.43;7.00;;;;;;;17.64;82.18;96918.81;5038087;28;20620;-77
2021/06/13 01:49:40;;;;;;;11.13;6.60;;;;;;;17.64;80.88;96918.03;5038434;28;20209;-75
2021/06/13 01:52:11;;;;;;;14.57;7.13;;;;;;;17.63;81.71;96916.38;5038426;28;20694;-75
2021/06/13 01:54:38;;;;;;;12.00;6.75;;;;;;;17.54;82.54;96923.75;5038136;28;20221;-76
2021/06/13 01:57:05;;;;;;;12.20;6.88;;;;;;;17.53;82.89;96923.97;5037798;28;20202;-76
2021/06/13 01:59:33;;;;;;;14.27;7.03;;;;;;;17.48;83.03;96908.56;5038180;28;20514;-77
2021/06/13 02:02:03;;;;;;;10.95;6.38;;;;;;;17.47;84.18;96920.25;5038175;28;20729;-75
2021/06/13 02:04:32;;;;;;;11.40;6.53;;;;;;;17.38;86.12;96913.47;5034664;28;20721;-75
2021/06/13 02:06:59;;;;;;;13.10;6.78;;;;;;;17.39;84.53;96912.47;5037221;28;20232;-75
2021/06/13 02:09:25;;;;;;;8.18;6.20;;;;;;;17.41;85.66;96926.41;5038365;28;20209;-75
2021/06/13 02:11:54;;;;;;;10.45;6.60;;;;;;;17.28;86.58;96922.88;5038199;28;20372;-76
2021/06/13 02:14:22;;;;;;;11.65;6.80;;;;;;;17.15;87.83;96914.84;5037838;28;20237;-75
2021/06/13 02:16:49;;;;;;;10.80;7.28;;;;;;;17.04;88.49;96926.06;5037557;28;20216;-77
2021/06/13 02:19:19;;;;;;;12.52;7.35;;;;;;;16.98;88.15;96924.22;5038251;28;20205;-75
2021/06/13 02:21:46;;;;;;;12.90;6.97;;;;;;;16.89;86.03;96927.22;5036467;28;20201;-75
2021/06/13 02:24:15;;;;;;;11.75;7.53;;;;;;;16.90;87.37;96929.69;5038174;28;20338;-75
2021/06/13 02:26:44;;;;;;;9.05;6.22;;;;;;;16.89;86.15;96927.22;5037272;28;20240;-75
2021/06/13 02:29:11;;;;;;;12.95;7.05;;;;;;;16.86;86.86;96928.44;5037612;28;20221;-75
2021/06/13 02:31:41;;;;;;;11.52;7.05;;;;;;;16.73;87.56;96927.59;5037143;28;20469;-76
2021/06/13 02:34:08;;;;;;;11.70;6.70;;;;;;;16.71;88.65;96929.63;5036322;28;20228;-75
2021/06/13 02:36:35;;;;;;;11.65;7.32;;;;;;;16.65;88.57;96925.91;5036222;28;21022;-76
2021/06/13 02:39:04;;;;;;;10.20;6.75;;;;;;;16.54;90.11;96934.44;5036907;28;20389;-75
2021/06/13 02:41:32;;;;;;;10.43;6.55;;;;;;;16.60;90.88;96928.34;5036275;28;20236;-75
2021/06/13 02:43:58;;;;;;;10.40;6.25;;;;;;;16.47;91.79;96930.13;5035309;28;20221;-76
2021/06/13 02:46:24;;;;;;;8.85;6.15;;;;;;;16.33;92.50;96936.38;5037294;28;20794;-75
2021/06/13 02:48:50;;;;;;;11.38;7.10;;;;;;;16.20;93.41;96938.09;5037799;28;20262;-74
2021/06/13 02:51:20;;;;;;;10.07;6.57;;;;;;;16.30;93.24;96944.72;5036888;28;20201;-76
2021/06/13 02:53:51;;;;;;;15.10;7.05;;;;;;;16.23;94.27;96943.84;5037137;28;20967;-77
2021/06/13 02:56:24;;;;;;;16.48;6.22;;;;;;;15.88;96.75;96944.81;5036148;28;20220;-76
2021/06/13 02:58:59;;;;;;;11.80;6.82;;;;;;;16.01;95.69;96941.44;5036127;28;20201;-75
2021/06/13 03:01:26;;;;;;;10.85;6.30;;;;;;;16.01;96.39;96946.75;5035666;28;20663;-75
2021/06/13 03:03:52;;;;;;;10.75;6.43;;;;;;;15.99;95.77;96956.75;5036390;28;20236;-75
2021/06/13 03:06:20;;;;;;;12.00;6.63;;;;;;;15.92;96.08;96953.22;5035660;28;20228;-75
2021/06/13 03:08:48;;;;;;;7.63;6.05;;;;;;;15.97;95.07;96956.97;5036154;28;20591;-76
2021/06/13 03:11:15;;;;;;;18.33;7.13;;;;;;;15.85;96.36;96958.47;5036921;28;20216;-75
2021/06/13 03:13:44;;;;;;;24.60;6.93;;;;;;;15.87;96.57;96953.81;5037038;28;20287;-76
2021/06/13 03:16:10;;;;;;;16.80;6.88;;;;;;;15.87;96.91;96964.44;5036152;28;20217;-76
2021/06/13 03:18:37;;;;;;;13.48;6.68;;;;;;;15.89;96.98;96957.06;5036647;28;20617;-76
2021/06/13 03:21:06;;;;;;;7.97;6.05;;;;;;;15.93;97.24;96961.00;5036902;28;20358;-76
2021/06/13 03:23:33;;;;;;;14.38;6.30;;;;;;;15.94;96.71;96957.31;5036597;28;20483;-75
2021/06/13 03:26:02;;;;;;;12.13;6.82;;;;;;;15.85;97.57;96958.47;5035645;28;20899;-75
2021/06/13 03:28:29;;;;;;;12.27;6.65;;;;;;;15.89;98.12;96958.94;5036779;28;20579;-75
2021/06/13 03:30:56;;;;;;;9.70;6.22;;;;;;;15.84;98.93;96956.81;5036883;28;20205;-75
2021/06/13 03:33:24;;;;;;;11.35;7.35;;;;;;;15.88;98.53;96963.44;5036453;28;20205;-75
2021/06/13 03:35:52;;;;;;;14.50;7.70;;;;;;;15.91;97.55;96960.38;5035837;28;20201;-75
2021/06/13 03:38:20;;;;;;;11.45;7.05;;;;;;;16.10;97.39;96958.88;5036367;28;20201;-76
2021/06/13 03:40:47;;;;;;;15.15;7.80;;;;;;;16.19;98.62;96963.03;5036542;28;20213;-76
2021/06/13 03:43:15;;;;;;;12.35;7.82;;;;;;;16.14;96.60;96952.16;5036128;28;20205;-75
2021/06/13 03:45:42;;;;;;;13.73;7.38;;;;;;;16.11;98.60;96957.88;5035829;28;20225;-75
2021/06/13 03:48:10;;;;;;;10.90;7.50;;;;;;;16.15;98.43;96961.78;5036326;28;20205;-76
2021/06/13 03:50:37;;;;;;;10.05;6.80;;;;;;;16.08;98.40;96964.38;5036190;28;20240;-76
2021/06/13 03:53:04;;;;;;;14.82;7.43;;;;;;;15.96;99.19;96971.25;5036403;28;20205;-75
2021/06/13 03:55:31;;;;;;;11.65;7.18;;;;;;;15.92;98.61;96963.84;5035024;28;20316;-75
2021/06/13 03:57:58;;;;;;;16.70;8.05;;;;;;;15.86;98.52;96967.28;5036224;28;20902;-76
2021/06/13 04:00:29;;;;;;;14.50;7.88;;;;;;;15.89;98.25;96965.06;5037131;28;20212;-75
2021/06/13 04:02:57;;;;;;;13.05;6.88;;;;;;;16.02;99.42;96959.03;5036811;28;20216;-75
2021/06/13 04:05:24;;;;;;;15.65;6.95;;;;;;;16.10;97.77;96967.69;5035737;28;20239;-75
2021/06/13 04:07:50;;;;;;;11.15;6.88;;;;;;;16.03;97.42;96966.81;5035522;28;20205;-75
2021/06/13 04:10:19;;;;;;;16.10;6.80;;;;;;;15.95;97.23;96963.47;5036130;28;20311;-76
2021/06/13 04:12:47;;;;;;;12.30;6.35;;;;;;;15.77;98.53;96964.94;5035996;28;20216;-76
2021/06/13 04:15:14;;;;;;;13.13;6.30;;;;;;;15.76;98.48;96968.59;5034562;28;20231;-75
2021/06/13 04:17:42;;;;;;;10.35;7.00;;;;;;;15.67;99.07;96964.44;5036617;28;20197;-75
2021/06/13 04:20:11;;;;;;;11.20;6.65;;;;;;;15.61;99.97;96973.19;5035197;28;20212;-76
2021/06/13 04:22:39;;;;;;;11.05;6.38;;;;;;;15.72;99.62;96970.00;5035925;28;20213;-75
2021/06/13 04:25:08;;;;;;;13.02;6.80;;;;;;;15.69;100.00;96983.69;5035476;28;20228;-75
2021/06/13 04:27:37;;;;;;;10.38;6.13;;;;;;;15.67;100.00;96981.22;5036173;28;20235;-75
2021/06/13 04:30:06;;;;;;;14.30;6.68;;;;;;;15.63;100.00;96979.13;5035684;28;20232;-76
2021/06/13 04:32:33;;;;;;;14.07;6.63;;;;;;;15.79;100.00;96986.84;5036497;28;20211;-75
2021/06/13 04:35:01;;;;;;;8.77;5.93;;;;;;;15.98;100.00;96989.69;5035177;28;20582;-75
2021/06/13 04:37:28;;;;;;;10.18;6.72;;;;;;;15.93;99.02;96998.22;5035486;28;20208;-75
2021/06/13 04:39:54;;;;;;;10.68;6.15;;;;;;;16.00;100.00;96993.78;5035467;28;20205;-76
2021/06/13 04:42:21;;;;;;;11.77;6.88;;;;;;;16.07;95.24;96994.66;5036241;28;20201;-75
2021/06/13 04:44:47;;;;;;;14.25;7.20;;;;;;;16.10;95.20;96996.94;5035405;28;20777;-75
2021/06/13 04:47:14;;;;;;;16.08;7.20;;;;;;;16.30;96.44;96997.13;5034780;28;20788;-76
2021/06/13 04:49:43;;;;;;;12.75;6.90;;;;;;;16.41;95.42;97002.72;5035491;28;20456;-75
2021/06/13 04:52:13;;;;;;;13.27;7.15;;;;;;;16.48;94.26;97000.91;5035991;28;20295;-77
2021/06/13 04:55:08;;;;;;;10.90;6.57;;;;;;;16.61;94.40;97011.63;5035684;28;20573;-75
2021/06/13 04:57:50;;;;;;;11.95;6.90;;;;;;;16.67;93.90;97018.84;5032533;28;20228;-75
2021/06/13 05:00:16;;;;;;;13.38;7.90;;;;;;;16.73;93.46;97010.09;5035685;28;20209;-76
2021/06/13 05:02:42;;;;;;;11.00;6.78;;;;;;;16.62;91.19;97013.28;5036175;28;20205;-75
2021/06/13 05:05:10;;;;;;;12.50;7.25;;;;;;;16.59;91.99;97011.03;5037737;28;20633;-75
2021/06/13 05:07:38;;;;;;;13.43;6.93;;;;;;;16.55;92.02;97015.91;5039348;28;20229;-76
2021/06/13 05:10:05;;;;;;;12.95;7.07;;;;;;;16.41;92.78;97021.34;5040173;28;20593;-76
2021/06/13 05:12:42;;;;;;;14.68;7.32;;;;;;;16.51;92.69;97019.19;5039482;28;20224;-76
2021/06/13 05:15:10;;;;;;;12.02;7.68;;;;;;;16.43;90.98;97021.97;5037921;28;20235;-74
2021/06/13 05:17:36;;;;;;;11.93;7.47;;;;;;;16.42;91.94;97024.81;5040026;28;20338;-75
2021/06/13 05:20:03;;;;;;;9.80;6.82;;;;;;;16.48;92.06;97025.72;5039868;28;20205;-75
2021/06/13 05:22:29;;;;;;;11.40;6.55;;;;;;;16.48;91.30;97035.50;5039122;28;21127;-74
2021/06/13 05:24:57;;;;;;;11.57;6.55;;;;;;;16.48;89.27;97030.19;5039407;28;20229;-76
2021/06/13 05:27:24;;;;;;;11.50;7.13;;;;;;;16.54;88.28;97029.41;5038604;28;20221;-75
2021/06/13 05:29:50;;;;;;;11.65;7.05;;;;;;;16.59;88.23;97034.97;5039198;28;20371;-74
2021/06/13 05:32:16;;;;;;;12.88;6.82;;;;;;;16.57;89.84;97029.84;5039616;28;20208;-75
2021/06/13 05:34:43;;;;;;;13.05;7.28;;;;;;;16.60;87.96;97039.31;5039809;28;20229;-74
2021/06/13 05:37:09;;;;;;;11.02;6.93;;;;;;;16.66;87.26;97033.19;5038461;28;20686;-75
2021/06/13 05:39:36;;;;;;;11.50;6.43;;;;;;;16.81;86.10;97041.88;5039266;28;20208;-74
2021/06/13 05:42:04;;;;;;;12.63;7.03;;;;;;;16.81;86.05;97042.69;5039448;28;20208;-74
2021/06/13 05:44:31;;;;;;;13.52;6.60;;;;;;;16.87;85.95;97036.59;5037567;28;20232;-73
2021/06/13 05:46:57;;;;;;;12.52;6.10;;;;;;;16.89;84.68;97044.38;5038195;28;20244;-73
2021/06/13 05:49:24;;;;;;;11.15;6.53;;;;;;;17.00;84.82;97049.97;5039343;28;20205;-73
2021/06/13 05:51:50;;;;;;;13.40;6.63;;;;;;;17.11;85.23;97044.91;5039176;28;20205;-73
2021/06/13 05:54:17;;;;;;;14.35;6.70;;;;;;;17.04;82.25;97047.75;5038395;28;20250;-73
2021/06/13 05:56:43;;;;;;;10.90;6.47;;;;;;;16.98;82.19;97052.03;5038210;28;20687;-73
2021/06/13 05:59:11;;;;;;;12.50;6.53;;;;;;;16.93;85.49;97051.78;5039353;28;20216;-73
2021/06/13 06:01:37;;;;;;;13.88;6.47;;;;;;;16.90;87.06;97054.00;5038925;28;20209;-73
2021/06/13 06:04:04;;;;;;;14.90;6.35;;;;;;;16.93;83.91;97059.78;5037963;28;20224;-74
2021/06/13 06:06:31;;;;;;;11.65;6.10;;;;;;;17.12;85.97;97069.72;5038381;28;20228;-73
2021/06/13 06:08:57;;;;;;;13.23;7.00;;;;;;;17.20;82.39;97070.34;5038708;28;20216;-74
2021/06/13 06:11:24;;;;;;;10.77;6.07;;;;;;;17.30;82.33;97068.19;5038824;28;20201;-74
2021/06/13 06:13:53;;;;;;;10.85;5.75;;;;;;;17.39;81.94;97068.84;5038732;28;20236;-73
2021/06/13 06:16:21;;;;;;;10.73;5.65;;;;;;;17.51;83.65;97072.59;5036941;28;20231;-73
2021/06/13 06:18:48;;;;;;;11.25;6.22;;;;;;;17.51;82.36;97070.72;5037888;28;20201;-73
2021/06/13 06:21:14;;;;;;;14.73;5.85;;;;;;;17.57;80.51;97083.25;5038848;28;20578;-73
2021/06/13 06:23:41;;;;;;;8.82;5.25;;;;;;;17.58;80.36;97079.59;5038205;28;20225;-74
2021/06/13 06:26:07;;;;;;;9.35;5.30;;;;;;;17.64;81.26;97077.97;5038002;28;20271;-73
2021/06/13 06:28:34;;;;;;;12.60;5.40;;;;;;;17.74;82.49;97073.88;5037983;28;20642;-74
2021/06/13 06:31:00;;;;;;;13.45;5.78;;;;;;;17.82;79.56;97071.06;5038610;28;20197;-73
2021/06/13 06:33:30;;;;;;;12.95;4.97;;;;;;;17.86;81.07;97073.09;5038117;28;20205;-73
2021/06/13 06:35:57;;;;;;;11.88;5.70;;;;;;;17.84;80.22;97079.66;5037131;28;20310;-73
2021/06/13 06:38:23;;;;;;;12.45;5.80;;;;;;;17.85;77.40;97076.78;5038204;28;20198;-74
2021/06/13 06:40:50;;;;;;;9.43;5.28;;;;;;;18.03;80.58;97078.88;5038519;28;20205;-73
2021/06/13 06:43:16;;;;;;;9.27;5.57;;;;;;;18.10;87.45;97074.38;5033974;28;20216;-73
2021/06/13 06:45:43;;;;;;;8.65;5.40;;;;;;;18.17;81.64;97083.22;5036535;28;20201;-74
2021/06/13 06:48:09;;;;;;;8.10;4.90;;;;;;;18.27;77.93;97086.34;5038607;28;20224;-74
2021/06/13 06:50:38;;;;;;;8.02;5.28;;;;;;;18.34;80.49;97080.81;5037355;28;20193;-73
2021/06/13 06:53:04;;;;;;;12.18;5.35;;;;;;;18.28;77.26;97083.47;5037164;28;20683;-73
2021/06/13 06:55:30;;;;;;;13.20;5.32;;;;;;;18.35;79.44;97094.97;5037537;28;20220;-73
2021/06/13 06:57:58;;;;;;;11.90;5.28;;;;;;;18.44;76.20;97097.25;5038433;28;20292;-75
2021/06/13 07:00:24;;;;;;;10.32;5.32;;;;;;;18.51;74.10;97092.72;5037111;28;21144;-73
2021/06/13 07:02:51;;;;;;;11.02;5.45;;;;;;;18.49;74.35;97097.41;5037801;28;20209;-73
2021/06/13 07:05:17;;;;;;;13.85;5.50;;;;;;;18.46;76.30;97103.19;5037104;28;20236;-74
2021/06/13 07:07:45;;;;;;;7.85;5.55;;;;;;;18.49;75.15;97099.28;5037696;28;20221;-73
2021/06/13 07:10:13;;;;;;;11.18;5.68;;;;;;;18.52;74.64;97105.03;5036986;28;20216;-74
2021/06/13 07:12:40;;;;;;;13.68;5.60;;;;;;;18.49;74.35;97102.75;5037974;28;20660;-72
2021/06/13 07:15:11;;;;;;;12.50;5.28;;;;;;;18.71;73.06;97103.38;5034249;28;20652;-74
2021/06/13 07:17:38;;;;;;;10.43;5.43;;;;;;;18.81;74.40;97106.47;5036666;28;20225;-73
2021/06/13 07:20:05;;;;;;;10.10;5.50;;;;;;;18.76;75.08;97109.78;5037252;28;20205;-74
2021/06/13 07:22:32;;;;;;;9.52;5.35;;;;;;;18.86;74.61;97102.13;5037069;28;20198;-73
2021/06/13 07:25:05;;;;;;;11.77;5.20;;;;;;;19.08;73.07;97108.91;5037328;28;20622;-74
2021/06/13 07:27:31;;;;;;;8.82;5.00;;;;;;;19.09;72.30;97114.06;5036375;28;20263;-73
2021/06/13 07:29:58;;;;;;;9.48;5.65;;;;;;;19.15;69.47;97123.91;5035373;28;20209;-74
2021/06/13 07:32:24;;;;;;;8.40;5.22;;;;;;;19.18;72.60;97115.50;5034237;28;20842;-73
2021/06/13 07:34:51;;;;;;;10.00;5.45;;;;;;;19.34;73.22;97119.56;5034500;28;20221;-73
2021/06/13 07:37:17;;;;;;;11.80;5.57;;;;;;;19.08;74.71;97128.47;5035688;28;20209;-74
2021/06/13 07:39:44;;;;;;;10.30;5.25;;;;;;;19.13;70.01;97123.31;5036919;28;20205;-73
2021/06/13 07:42:12;;;;;;;7.97;4.75;;;;;;;19.27;68.78;97124.09;5035871;28;20207;-74
2021/06/13 07:44:39;;;;;;;10.00;6.00;;;;;;;19.38;73.95;97121.59;5035870;28;20647;-74
2021/06/13 07:47:06;;;;;;;14.00;5.35;;;;;;;19.48;70.78;97121.19;5036234;28;20260;-74
2021/06/13 07:49:32;;;;;;;13.68;5.28;;;;;;;19.61;74.90;97122.78;5036608;28;20682;-73
2021/06/13 07:51:59;;;;;;;10.82;4.30;;;;;;;19.76;69.59;97119.81;5035223;28;20304;-74
2021/06/13 07:54:26;;;;;;;10.70;4.78;;;;;;;19.95;63.85;97132.34;5036171;28;20221;-74
2021/06/13 07:56:53;;;;;;;12.05;5.03;;;;;;;19.97;68.81;97127.56;5035892;28;20205;-74
2021/06/13 07:59:20;;;;;;;9.45;4.72;;;;;;;20.24;63.81;97130.72;5034789;28;20208;-73
2021/06/13 08:01:47;;;;;;;8.73;4.72;;;;;;;20.20;62.97;97128.69;5033859;28;20201;-74
2021/06/13 08:04:13;;;;;;;10.88;4.63;;;;;;;20.28;61.00;97133.78;5035578;28;20231;-74
2021/06/13 08:06:40;;;;;;;10.68;4.22;;;;;;;20.05;62.05;97136.19;5035037;28;20206;-74
2021/06/13 08:09:07;;;;;;;10.48;4.20;;;;;;;19.99;62.52;97131.69;5035900;28;20213;-74
2021/06/13 08:11:33;;;;;;;7.45;4.30;;;;;;;19.63;65.04;97131.38;5035660;28;20205;-73
2021/06/13 08:14:00;;;;;;;9.93;4.20;;;;;;;19.20;66.52;97131.31;5036478;28;20715;-73
2021/06/13 08:16:27;;;;;;;13.82;4.72;;;;;;;19.33;65.72;97128.63;5036015;28;20205;-74
2021/06/13 08:18:54;;;;;;;10.90;4.85;;;;;;;19.12;63.40;97134.22;5035951;28;20197;-73
2021/06/13 08:21:20;;;;;;;7.40;4.93;;;;;;;19.21;64.38;97124.94;5036123;28;20208;-73
2021/06/13 08:23:47;;;;;;;10.10;4.63;;;;;;;19.49;66.04;97128.13;5035962;28;20228;-74
2021/06/13 08:26:14;;;;;;;5.93;3.90;;;;;;;19.84;63.86;97122.25;5035470;28;20571;-73
2021/06/13 08:28:40;;;;;;;9.65;4.30;;;;;;;19.80;63.17;97116.50;5035694;28;20221;-73
2021/06/13 08:31:07;;;;;;;8.20;4.30;;;;;;;20.03;62.69;97124.06;5036746;28;20216;-73
2021/06/13 08:33:34;;;;;;;14.40;4.43;;;;;;;20.25;59.64;97116.31;5035938;28;21169;-74
2021/06/13 08:36:01;;;;;;;7.90;4.50;;;;;;;20.23;60.52;97117.56;5035405;28;20209;-73
2021/06/13 08:38:27;;;;;;;9.20;4.20;;;;;;;20.07;61.07;97126.06;5035142;28;20556;-73
2021/06/13 08:40:54;;;;;;;8.30;3.85;;;;;;;19.85;60.07;97122.03;5042608;28;20200;-74
2021/06/13 08:43:21;;;;;;;8.57;4.40;;;;;;;19.61;63.22;97116.59;5043054;28;20204;-73
2021/06/13 08:45:50;;;;;;;11.35;4.47;;;;;;;19.76;63.94;97109.94;5041878;28;20675;-73
2021/06/13 08:48:17;;;;;;;13.77;4.20;;;;;;;20.08;62.80;97111.66;5042168;28;20336;-73
2021/06/13 08:50:45;;;;;;;10.30;4.05;;;;;;;20.34;62.96;97111.50;5042512;28;20205;-74
2021/06/13 08:53:11;;;;;;;11.55;4.18;;;;;;;20.40;59.10;97113.31;5042269;28;20212;-74
2021/06/13 08:55:38;;;;;;;11.90;4.30;;;;;;;20.50;60.80;97105.63;5042619;28;20201;-73
2021/06/13 08:58:05;;;;;;;7.93;4.07;;;;;;;20.43;57.94;97112.88;5042265;28;20203;-73
2021/06/13 09:00:32;;;;;;;9.05;4.00;;;;;;;20.35;59.53;97121.16;5042463;28;20201;-73
2021/06/13 09:02:59;;;;;;;8.73;3.90;;;;;;;20.59;58.39;97123.06;5042681;28;20211;-74
2021/06/13 09:05:27;;;;;;;7.30;3.70;;;;;;;20.16;57.70;97127.47;5041561;28;20217;-73
2021/06/13 09:07:57;;;;;;;7.50;3.28;;;;;;;20.06;60.05;97129.81;5041938;28;20733;-73
2021/06/13 09:10:27;;;;;;;6.47;3.53;;;;;;;20.12;60.88;97134.28;5042112;28;20279;-73
2021/06/13 09:13:09;;;;;;;7.45;3.42;;;;;;;20.26;58.18;97131.34;5039618;28;20982;-73
2021/06/13 09:15:38;;;;;;;5.15;3.05;;;;;;;20.55;57.90;97127.22;5042734;28;20212;-73
2021/06/13 09:18:07;;;;;;;6.18;3.65;;;;;;;20.96;57.32;97126.50;5040026;28;20640;-73
2021/06/13 09:20:33;;;;;;;6.68;3.33;;;;;;;21.23;58.17;97119.84;5041913;28;20220;-73
2021/06/13 09:23:11;;;;;;;6.68;3.25;;;;;;;21.30;58.13;97117.91;5041581;28;20205;-74
2021/06/13 09:25:40;;;;;;;9.70;3.63;;;;;;;21.31;54.09;97110.69;5042016;28;20670;-74
2021/06/13 09:28:10;;;;;;;4.72;2.97;;;;;;;21.53;55.95;97115.44;5042090;28;21042;-71
2021/06/13 09:30:38;;;;;;;6.22;3.17;;;;;;;21.40;54.29;97110.19;5042715;28;20205;-73
2021/06/13 09:33:08;;;;;;;9.13;3.08;;;;;;;21.11;55.44;97112.75;5042450;28;20197;-70
2021/06/13 09:35:36;;;;;;;7.38;3.00;;;;;;;21.30;55.45;97112.56;5041724;28;20228;-70
2021/06/13 09:38:16;;;;;;;8.80;3.60;;;;;;;21.34;54.47;97119.09;5042637;28;20192;-70
2021/06/13 09:40:45;;;;;;;8.35;3.22;;;;;;;21.26;57.69;97111.34;5041594;28;20236;-70
2021/06/13 09:43:18;;;;;;;6.43;3.10;;;;;;;21.36;55.36;97116.19;5042190;28;20205;-70
2021/06/13 09:45:49;;;;;;;9.13;3.55;;;;;;;21.56;57.46;97118.50;5041477;28;20209;-70
2021/06/13 09:48:17;;;;;;;8.48;3.42;;;;;;;21.86;54.67;97115.88;5041961;28;20231;-71
2021/06/13 09:50:46;;;;;;;6.18;2.92;;;;;;;21.82;53.07;97120.03;5038105;28;20584;-71
2021/06/13 09:53:33;;;;;;;4.90;3.13;;;;;;;21.81;56.47;97121.09;5038811;28;20201;-71
2021/06/13 09:56:21;;;;;;;6.38;3.25;;;;;;;21.81;55.73;97119.22;5037384;28;20209;-71
2021/06/13 09:58:54;;;;;;;8.00;3.30;;;;;;;22.62;58.43;97120.38;5037522;28;20197;-71
2021/06/13 10:01:23;;;;;;;7.32;3.60;;;;;;;22.62;51.92;97123.91;5037928;28;20702;-71
2021/06/13 10:03:49;;;;;;;7.88;3.50;;;;;;;22.49;54.30;97126.78;5036284;28;20707;-71
2021/06/13 10:06:18;;;;;;;6.13;3.90;;;;;;;22.04;51.33;97119.31;5038185;28;20236;-71
2021/06/13 10:08:48;;;;;;;9.35;3.70;;;;;;;22.14;54.52;97123.09;5035448;28;20260;-71
2021/06/13 10:11:16;;;;;;;7.40;3.13;;;;;;;22.32;52.74;97124.97;5038432;28;20194;-70
2021/06/13 10:13:47;;;;;;;5.18;3.28;;;;;;;22.43;56.55;97130.38;5038744;28;20231;-71
2021/06/13 10:16:29;;;;;;;6.53;3.00;;;;;;;22.47;52.58;97123.50;5038047;28;20213;-69
2021/06/13 10:18:58;;;;;;;7.60;3.42;;;;;;;22.24;53.94;97126.06;5038536;28;20197;-71
2021/06/13 10:21:27;;;;;;;6.10;2.90;;;;;;;22.32;50.38;97114.22;5038424;28;20208;-69
2021/06/13 10:23:56;;;;;;;6.43;2.60;;;;;;;22.61;51.05;97111.50;5037862;28;20228;-71
2021/06/13 10:26:23;;;;;;;7.97;2.95;;;;;;;22.49;49.59;97116.03;5038425;28;20569;-69
2021/06/13 10:28:49;;;;;;;12.43;3.20;;;;;;;22.58;48.12;97125.41;5037826;28;20220;-71
2021/06/13 10:31:16;;;;;;;4.47;2.40;;;;;;;22.74;50.22;97120.16;5037605;28;20209;-70
2021/06/13 10:33:44;;;;;;;5.93;2.50;;;;;;;22.73;47.74;97120.41;5038512;28;20220;-69
2021/06/13 10:36:11;;;;;;;6.57;2.95;;;;;;;22.49;48.66;97113.34;5038700;28;20201;-70
2021/06/13 10:38:38;;;;;;;4.97;2.40;;;;;;;22.96;49.15;97118.56;5037793;28;20204;-70
2021/06/13 10:41:06;;;;;;;6.78;3.10;;;;;;;22.93;49.00;97115.53;5037457;28;20197;-69
2021/06/13 10:43:33;;;;;;;8.88;2.53;;;;;;;22.65;48.46;97115.38;5038656;28;20225;-69
2021/06/13 10:46:07;;;;;;;4.13;2.35;;;;;;;22.69;48.62;97111.16;5036974;28;20205;-70
2021/06/13 10:48:48;;;;;;;4.97;2.10;;;;;;;22.91;47.63;97114.94;5037193;28;20229;-70
2021/06/13 10:51:38;;;;;;;4.15;1.90;;;;;;;22.91;45.50;97109.56;5038000;28;20201;-69
2021/06/13 10:54:24;;;;;;;3.33;2.22;;;;;;;22.84;47.58;97119.59;5037933;28;20236;-70
2021/06/13 10:56:54;;;;;;;3.75;1.90;;;;;;;22.88;45.44;97116.22;5037035;28;20607;-70
2021/06/13 10:59:21;;;;;;;3.47;1.95;;;;;;;23.10;45.67;97113.81;5037567;28;20221;-70
2021/06/13 11:02:03;;;;;;;7.10;2.10;;;;;;;23.34;45.42;97108.19;5036966;28;20208;-70
2021/06/13 11:04:47;;;;;;;4.18;1.98;;;;;;;23.36;42.55;97109.59;5036987;28;20326;-70
2021/06/13 11:07:52;;;;;;;8.48;2.30;;;;;;;23.53;43.98;97102.44;5037077;28;20296;-70
2021/06/13 11:10:19;;;;;;;5.10;2.20;;;;;;;23.41;43.72;97109.72;5022225;28;20204;-71
2021/06/13 11:12:51;;;;;;;5.28;2.42;;;;;;;23.48;44.95;97117.66;5037281;28;20687;-70
2021/06/13 11:16:04;;;;;;;4.45;2.00;;;;;;;23.55;45.29;97108.41;5035693;28;20236;-70
2021/06/13 11:18:34;;;;;;;6.05;2.10;;;;;;;23.54;44.81;97108.66;5037854;28;20204;-70
2021/06/13 11:21:06;;;;;;;4.07;2.25;;;;;;;23.60;43.39;97107.69;5037100;28;20547;-70
2021/06/13 11:23:57;;;;;;;3.45;1.98;;;;;;;23.77;43.83;97103.25;5037323;28;20221;-69
2021/06/13 11:26:40;;;;;;;6.20;2.22;;;;;;;24.06;43.76;97106.53;5036756;28;20201;-69
2021/06/13 11:29:10;;;;;;;4.38;1.98;;;;;;;24.09;42.24;97106.06;5036735;28;20225;-70
2021/06/13 11:31:45;;;;;;;4.60;2.17;;;;;;;24.21;44.54;97104.16;5037189;28;20263;-70
2021/06/13 11:34:12;;;;;;;3.90;2.17;;;;;;;23.91;44.00;97105.44;5036837;28;20225;-69
2021/06/13 11:36:41;;;;;;;5.22;2.45;;;;;;;23.85;44.83;97097.50;5036350;28;20206;-69